Time;durP1;ratioP1;P1;durP2;ratioP2;P2;SDS_P1;SDS_P2;PMS_P1;PMS_P2;Temp;Humidity;BMP_temperature;BMP_pressure;BME280_temperature;BME280_humidity;BME280_pressure;Samples;Min_cycle;Max_cycle;Signal;HPM_P1;HPM_P2
2023/05/06 00:02:08;;;;;;;;;;;;;;;12.50;83.19;101585.47;5057221;28;19917;-65
2023/05/06 00:04:33;;;;;;;;;;;;;;;12.48;83.49;101583.97;5057460;28;20306;-65
2023/05/06 00:06:59;;;;;;;;;;;;;;;12.47;82.88;101580.47;5051542;28;19999;-65
2023/05/06 00:09:24;;;;;;;;;;;;;;;12.45;82.49;101573.63;5057665;28;19916;-65
2023/05/06 00:11:49;;;;;;;;;;;;;;;12.41;82.36;101571.28;5066884;28;19963;-65
2023/05/06 00:14:15;;;;;;;;;;;;;;;12.40;82.29;101572.28;5060521;28;20406;-65
2023/05/06 00:16:40;;;;;;;;;;;;;;;12.39;82.06;101567.94;5055971;28;19924;-65
2023/05/06 00:19:05;;;;;;;;;;;;;;;12.37;82.70;101563.78;5065531;28;20439;-65
2023/05/06 00:21:31;;;;;;;;;;;;;;;12.36;82.03;101572.78;5059716;28;19922;-64
2023/05/06 00:23:56;;;;;;;;;;;;;;;12.34;82.33;101575.59;5063686;28;19920;-65
2023/05/06 00:26:21;;;;;;;;;;;;;;;12.33;82.44;101573.94;5065847;28;19923;-65
2023/05/06 00:28:46;;;;;;;;;;;;;;;12.31;82.95;101567.09;5066451;28;19923;-65
2023/05/06 00:31:11;;;;;;;;;;;;;;;12.28;83.42;101570.09;5067334;28;19916;-64
2023/05/06 00:33:37;;;;;;;;;;;;;;;12.25;83.58;101570.44;5064146;28;20413;-65
2023/05/06 00:36:02;;;;;;;;;;;;;;;12.24;83.46;101569.59;5067012;28;19916;-65
2023/05/06 00:38:27;;;;;;;;;;;;;;;12.25;83.36;101567.78;5064823;28;19932;-65
2023/05/06 00:40:52;;;;;;;;;;;;;;;12.24;83.01;101558.94;5061905;28;19920;-64
2023/05/06 00:43:17;;;;;;;;;;;;;;;12.24;83.14;101568.78;5060342;28;19982;-65
2023/05/06 00:45:43;;;;;;;;;;;;;;;12.23;83.34;101567.09;5063989;28;20007;-65
2023/05/06 00:48:08;;;;;;;;;;;;;;;12.22;83.01;101574.25;5062798;28;19917;-65
2023/05/06 00:50:33;;;;;;;;;;;;;;;12.21;83.33;101575.25;5064021;28;19921;-65
2023/05/06 00:53:00;;;;;;;;;;;;;;;12.21;83.43;101566.44;5070185;28;20382;-65
2023/05/06 00:55:26;;;;;;;;;;;;;;;12.19;83.50;101569.25;5061336;28;20011;-65
2023/05/06 00:57:51;;;;;;;;;;;;;;;12.17;83.85;101563.28;5069529;28;20023;-64
2023/05/06 01:00:17;;;;;;;;;;;;;;;12.10;84.83;101556.91;5067316;28;19927;-65
2023/05/06 01:02:42;;;;;;;;;;;;;;;12.01;84.61;101557.88;5058544;28;20302;-64
2023/05/06 01:05:08;;;;;;;;;;;;;;;11.93;84.70;101556.03;5066029;28;20360;-65
2023/05/06 01:07:45;;;;;;;;;;;;;;;11.89;84.67;101564.53;5065073;28;19924;-65
2023/05/06 01:10:29;;;;;;;;;;;;;;;11.86;84.47;101549.72;5065010;28;19912;-65
2023/05/06 01:13:04;;;;;;;;;;;;;;;11.85;84.34;101555.16;5064416;28;19917;-65
2023/05/06 01:15:35;;;;;;;;;;;;;;;11.83;83.80;101550.00;5065976;28;19912;-65
2023/05/06 01:18:03;;;;;;;;;;;;;;;11.83;83.38;101555.31;5055107;28;19920;-65
2023/05/06 01:20:29;;;;;;;;;;;;;;;11.83;83.51;101554.50;5062780;28;19917;-64
2023/05/06 01:22:55;;;;;;;;;;;;;;;11.81;83.72;101551.16;5070698;28;19931;-65
2023/05/06 01:25:21;;;;;;;;;;;;;;;11.81;83.85;101553.81;5069874;28;19928;-65
2023/05/06 01:27:46;;;;;;;;;;;;;;;11.81;83.88;101545.84;5067792;28;21146;-65
2023/05/06 01:30:12;;;;;;;;;;;;;;;11.79;83.82;101544.19;5064815;28;19920;-65
2023/05/06 01:32:43;;;;;;;;;;;;;;;11.79;83.90;101548.66;5067842;28;20007;-65
2023/05/06 01:35:14;;;;;;;;;;;;;;;11.76;84.12;101538.31;5069454;28;20008;-64
2023/05/06 01:37:46;;;;;;;;;;;;;;;11.75;83.94;101548.13;5062704;28;19916;-65
2023/05/06 01:40:11;;;;;;;;;;;;;;;11.73;84.01;101546.63;5063482;28;19956;-65
2023/05/06 01:42:37;;;;;;;;;;;;;;;11.71;84.46;101545.94;5069020;28;19971;-65
2023/05/06 01:45:04;;;;;;;;;;;;;;;11.71;84.08;101548.63;5067948;28;19920;-65
2023/05/06 01:47:30;;;;;;;;;;;;;;;11.70;84.24;101545.13;5060460;28;19920;-65
2023/05/06 01:49:56;;;;;;;;;;;;;;;11.70;84.42;101542.47;5064853;28;19916;-65
2023/05/06 01:52:21;;;;;;;;;;;;;;;11.68;84.29;101546.28;5068940;28;20360;-64
2023/05/06 01:54:46;;;;;;;;;;;;;;;11.67;84.62;101547.28;5066239;28;19924;-65
2023/05/06 01:57:12;;;;;;;;;;;;;;;11.66;84.76;101557.09;5068562;28;20401;-65
2023/05/06 01:59:37;;;;;;;;;;;;;;;11.62;85.30;101557.56;5062162;28;19929;-65
2023/05/06 02:02:02;;;;;;;;;;;;;;;11.59;85.08;101563.22;5063610;28;19923;-65
2023/05/06 02:04:27;;;;;;;;;;;;;;;11.56;85.05;101559.00;5063443;28;19924;-65
2023/05/06 02:06:52;;;;;;;;;;;;;;;11.56;85.46;101558.19;5064100;28;19921;-65
2023/05/06 02:09:18;;;;;;;;;;;;;;;11.55;85.25;101572.47;5061371;28;19920;-65
2023/05/06 02:11:43;;;;;;;;;;;;;;;11.49;85.45;101572.13;5065511;28;19921;-64
2023/05/06 02:14:08;;;;;;;;;;;;;;;11.47;85.63;101570.63;5060822;28;19975;-65
2023/05/06 02:16:34;;;;;;;;;;;;;;;11.44;85.78;101566.44;5061211;28;20456;-64
2023/05/06 02:18:59;;;;;;;;;;;;;;;11.42;85.98;101568.44;5066335;28;19916;-65
2023/05/06 02:21:25;;;;;;;;;;;;;;;11.41;86.19;101574.75;5061024;28;19920;-65
2023/05/06 02:23:50;;;;;;;;;;;;;;;11.41;85.80;101572.09;5067157;28;20278;-65
2023/05/06 02:26:15;;;;;;;;;;;;;;;11.39;86.40;101568.75;5066337;28;19960;-65
2023/05/06 02:28:40;;;;;;;;;;;;;;;11.37;86.03;101570.75;5063529;28;19924;-65
2023/05/06 02:31:06;;;;;;;;;;;;;;;11.34;85.96;101567.56;5077599;28;19969;-64
2023/05/06 02:33:31;;;;;;;;;;;;;;;11.33;86.22;101565.91;5068208;28;19970;-65
2023/05/06 02:35:56;;;;;;;;;;;;;;;11.33;86.20;101566.72;5064921;28;19916;-65
2023/05/06 02:38:21;;;;;;;;;;;;;;;11.33;86.01;101571.22;5066217;28;19976;-65
2023/05/06 02:40:46;;;;;;;;;;;;;;;11.31;86.17;101560.75;5060234;28;19920;-65
2023/05/06 02:43:11;;;;;;;;;;;;;;;11.30;86.44;101560.91;5066649;28;19924;-65
2023/05/06 02:45:37;;;;;;;;;;;;;;;11.27;86.22;101561.19;5069741;28;20015;-65
2023/05/06 02:48:02;;;;;;;;;;;;;;;11.28;86.26;101563.72;5066283;28;19959;-65
2023/05/06 02:50:27;;;;;;;;;;;;;;;11.26;86.21;101560.34;5066707;28;19920;-65
2023/05/06 02:52:52;;;;;;;;;;;;;;;11.25;86.39;101563.16;5061024;28;19931;-65
2023/05/06 02:55:18;;;;;;;;;;;;;;;11.22;86.24;101556.34;5062113;28;19917;-64
2023/05/06 02:57:43;;;;;;;;;;;;;;;11.20;86.63;101562.81;5059358;28;20621;-65
2023/05/06 03:00:09;;;;;;;;;;;;;;;11.18;86.35;101558.47;5064646;28;19920;-64
2023/05/06 03:02:35;;;;;;;;;;;;;;;11.11;86.88;101559.28;5067068;28;19947;-65
2023/05/06 03:05:03;;;;;;;;;;;;;;;10.99;86.68;101561.38;5063366;28;20532;-65
2023/05/06 03:07:28;;;;;;;;;;;;;;;10.94;86.28;101560.97;5063775;28;19974;-65
2023/05/06 03:09:53;;;;;;;;;;;;;;;10.92;86.56;101565.59;5066095;28;19959;-65
2023/05/06 03:12:18;;;;;;;;;;;;;;;10.92;86.57;101551.50;5066554;28;21160;-64
2023/05/06 03:14:43;;;;;;;;;;;;;;;10.94;86.95;101558.31;5059190;28;19971;-65
2023/05/06 03:17:09;;;;;;;;;;;;;;;10.95;86.69;101562.63;5056674;28;19913;-64
2023/05/06 03:19:34;;;;;;;;;;;;;;;10.93;86.76;101556.66;5059769;28;19947;-65
2023/05/06 03:21:59;;;;;;;;;;;;;;;10.91;86.91;101563.13;5061297;28;19917;-64
2023/05/06 03:24:24;;;;;;;;;;;;;;;10.88;86.61;101564.25;5063256;28;20349;-65
2023/05/06 03:26:50;;;;;;;;;;;;;;;10.84;86.53;101554.94;5059325;28;20003;-65
2023/05/06 03:29:15;;;;;;;;;;;;;;;10.81;86.81;101558.72;5063174;28;20480;-65
2023/05/06 03:31:40;;;;;;;;;;;;;;;10.76;86.70;101550.41;5061193;28;19970;-65
2023/05/06 03:34:05;;;;;;;;;;;;;;;10.73;86.81;101549.88;5060141;28;19921;-65
2023/05/06 03:36:31;;;;;;;;;;;;;;;10.71;87.04;101554.50;5067340;28;19977;-64
2023/05/06 03:38:57;;;;;;;;;;;;;;;10.68;87.03;101552.97;5065056;28;19917;-65
2023/05/06 03:41:22;;;;;;;;;;;;;;;10.63;86.53;101555.25;5063403;28;20352;-64
2023/05/06 03:43:48;;;;;;;;;;;;;;;10.61;86.62;101549.25;5058822;28;19917;-65
2023/05/06 03:46:13;;;;;;;;;;;;;;;10.62;86.42;101547.44;5064688;28;20437;-65
2023/05/06 03:48:38;;;;;;;;;;;;;;;10.63;86.95;101543.78;5065508;28;20666;-64
2023/05/06 03:51:03;;;;;;;;;;;;;;;10.64;86.74;101543.63;5066256;28;19925;-64
2023/05/06 03:53:29;;;;;;;;;;;;;;;10.67;87.16;101548.66;5066236;28;19959;-65
2023/05/06 03:55:54;;;;;;;;;;;;;;;10.69;87.31;101545.84;5059240;28;19925;-65
2023/05/06 03:58:19;;;;;;;;;;;;;;;10.70;87.26;101547.53;5062172;28;19967;-65
2023/05/06 04:00:45;;;;;;;;;;;;;;;10.72;86.97;101557.00;5060120;28;20020;-65
2023/05/06 04:03:10;;;;;;;;;;;;;;;10.70;87.49;101547.53;5063176;28;20326;-65
2023/05/06 04:05:35;;;;;;;;;;;;;;;10.63;87.26;101554.41;5060097;28;19925;-65
2023/05/06 04:08:00;;;;;;;;;;;;;;;10.52;87.31;101551.03;5067163;28;19928;-64
2023/05/06 04:10:25;;;;;;;;;;;;;;;10.45;87.51;101551.78;5058647;28;19962;-64
2023/05/06 04:12:51;;;;;;;;;;;;;;;10.42;87.70;101557.41;5052472;28;20376;-64
2023/05/06 04:15:16;;;;;;;;;;;;;;;10.36;87.84;101558.81;5057316;28;20031;-65
2023/05/06 04:17:41;;;;;;;;;;;;;;;10.32;88.04;101554.81;5064836;28;19994;-65
2023/05/06 04:20:10;;;;;;;;;;;;;;;10.32;87.93;101562.78;5063233;28;19921;-64
2023/05/06 04:22:35;;;;;;;;;;;;;;;10.36;87.85;101563.31;5065125;28;19969;-65
2023/05/06 04:25:00;;;;;;;;;;;;;;;10.40;88.04;101568.16;5061580;28;19920;-64
2023/05/06 04:27:28;;;;;;;;;;;;;;;10.37;88.41;101571.13;5060993;28;19912;-64
2023/05/06 04:29:53;;;;;;;;;;;;;;;10.33;88.15;101574.22;5060501;28;19956;-64
2023/05/06 04:32:19;;;;;;;;;;;;;;;10.30;88.22;101571.88;5059634;28;19971;-64
2023/05/06 04:34:46;;;;;;;;;;;;;;;10.31;88.45;101568.25;5059718;28;19920;-64
2023/05/06 04:37:12;;;;;;;;;;;;;;;10.35;88.38;101582.88;5066162;28;20328;-64
2023/05/06 04:39:38;;;;;;;;;;;;;;;10.41;88.20;101579.63;5052625;28;20015;-64
2023/05/06 04:42:03;;;;;;;;;;;;;;;10.45;88.45;101581.84;5057610;28;20027;-65
2023/05/06 04:44:28;;;;;;;;;;;;;;;10.49;88.63;101580.53;5061533;28;19917;-64
2023/05/06 04:46:53;;;;;;;;;;;;;;;10.54;88.62;101583.56;5062688;28;19924;-64
2023/05/06 04:49:18;;;;;;;;;;;;;;;10.58;89.02;101586.75;5063867;28;20021;-64
2023/05/06 04:51:44;;;;;;;;;;;;;;;10.60;89.17;101582.13;5069526;28;19936;-64
2023/05/06 04:54:09;;;;;;;;;;;;;;;10.62;89.19;101582.81;5067920;28;19917;-65
2023/05/06 04:56:34;;;;;;;;;;;;;;;10.66;89.14;101578.00;5056505;28;20012;-64
2023/05/06 04:59:00;;;;;;;;;;;;;;;10.70;89.35;101588.22;5066820;28;19920;-64
2023/05/06 05:01:25;;;;;;;;;;;;;;;10.74;89.85;101586.91;5067793;28;19928;-64
2023/05/06 05:03:50;;;;;;;;;;;;;;;10.78;90.89;101584.78;5067802;28;19948;-65
2023/05/06 05:06:15;;;;;;;;;;;;;;;10.82;91.31;101594.94;5068264;28;20050;-65
2023/05/06 05:08:40;;;;;;;;;;;;;;;10.82;91.93;101594.94;5069622;28;19923;-64
2023/05/06 05:11:05;;;;;;;;;;;;;;;10.80;92.38;101594.25;5068987;28;19920;-65
2023/05/06 05:13:31;;;;;;;;;;;;;;;10.81;93.03;101598.59;5066677;28;20019;-64
2023/05/06 05:15:56;;;;;;;;;;;;;;;10.83;92.87;101598.44;5059461;28;20012;-64
2023/05/06 05:18:21;;;;;;;;;;;;;;;10.87;93.50;101599.78;5059186;28;20011;-64
2023/05/06 05:20:47;;;;;;;;;;;;;;;10.88;93.82;101606.78;5052703;28;20302;-65
2023/05/06 05:23:12;;;;;;;;;;;;;;;10.89;94.03;101602.28;5064214;28;19916;-65
2023/05/06 05:25:37;;;;;;;;;;;;;;;10.90;94.62;101609.28;5056967;28;19917;-64
2023/05/06 05:28:02;;;;;;;;;;;;;;;10.89;94.82;101608.44;5062235;28;19916;-65
2023/05/06 05:30:28;;;;;;;;;;;;;;;10.91;94.69;101605.63;5068417;28;19966;-65
2023/05/06 05:32:53;;;;;;;;;;;;;;;10.95;94.65;101601.66;5056932;28;19913;-64
2023/05/06 05:35:18;;;;;;;;;;;;;;;10.97;95.06;101610.31;5064049;28;19917;-65
2023/05/06 05:37:43;;;;;;;;;;;;;;;10.97;95.27;101607.66;5064343;28;20429;-65
2023/05/06 05:40:08;;;;;;;;;;;;;;;10.97;95.41;101611.16;5063797;28;19921;-65
2023/05/06 05:42:34;;;;;;;;;;;;;;;11.00;95.50;101615.34;5069480;28;19916;-64
2023/05/06 05:44:59;;;;;;;;;;;;;;;11.02;96.08;101624.00;5058380;28;19916;-64
2023/05/06 05:47:24;;;;;;;;;;;;;;;11.04;96.23;101619.38;5062374;28;19917;-65
2023/05/06 05:49:49;;;;;;;;;;;;;;;11.06;96.70;101626.19;5069571;28;19999;-64
2023/05/06 05:52:15;;;;;;;;;;;;;;;11.09;96.51;101630.38;5067632;28;19916;-64
2023/05/06 05:54:40;;;;;;;;;;;;;;;11.13;96.83;101629.91;5063860;28;19916;-65
2023/05/06 05:57:05;;;;;;;;;;;;;;;11.21;96.53;101633.59;5066714;28;20544;-64
2023/05/06 05:59:31;;;;;;;;;;;;;;;11.28;96.70;101629.34;5061534;28;20015;-65
2023/05/06 06:01:56;;;;;;;;;;;;;;;11.35;96.89;101627.72;5059898;28;20393;-64
2023/05/06 06:04:21;;;;;;;;;;;;;;;11.39;97.10;101629.91;5064500;28;19932;-64
2023/05/06 06:06:47;;;;;;;;;;;;;;;11.41;97.19;101630.59;5064417;28;19989;-65
2023/05/06 06:09:12;;;;;;;;;;;;;;;11.43;97.26;101625.94;5062105;28;19924;-65
2023/05/06 06:11:37;;;;;;;;;;;;;;;11.46;97.26;101622.97;5060250;28;19924;-66
2023/05/06 06:14:02;;;;;;;;;;;;;;;11.50;97.64;101623.50;5065381;28;19942;-65
2023/05/06 06:16:27;;;;;;;;;;;;;;;11.54;97.88;101624.84;5065269;28;19912;-65
2023/05/06 06:18:53;;;;;;;;;;;;;;;11.59;98.44;101627.06;5061336;28;19921;-64
2023/05/06 06:21:18;;;;;;;;;;;;;;;11.60;98.32;101621.56;5067518;28;19924;-65
2023/05/06 06:23:43;;;;;;;;;;;;;;;11.61;97.88;101622.41;5067051;28;19917;-65
2023/05/06 06:26:08;;;;;;;;;;;;;;;11.61;97.72;101619.75;5060983;28;20409;-65
2023/05/06 06:28:34;;;;;;;;;;;;;;;11.64;97.74;101627.41;5063195;28;19927;-64
2023/05/06 06:30:59;;;;;;;;;;;;;;;11.63;97.70;101623.09;5068629;28;20313;-65
2023/05/06 06:33:24;;;;;;;;;;;;;;;11.63;97.67;101625.75;5068670;28;19956;-65
2023/05/06 06:35:49;;;;;;;;;;;;;;;11.65;97.66;101626.41;5068737;28;19913;-65
2023/05/06 06:38:14;;;;;;;;;;;;;;;11.70;97.75;101632.94;5068384;28;19923;-64
2023/05/06 06:40:40;;;;;;;;;;;;;;;11.73;97.92;101627.28;5066200;28;20306;-65
2023/05/06 06:43:05;;;;;;;;;;;;;;;11.75;97.98;101629.78;5067730;28;19916;-64
2023/05/06 06:45:30;;;;;;;;;;;;;;;11.77;98.11;101633.94;5068266;28;19981;-65
2023/05/06 06:47:55;;;;;;;;;;;;;;;11.82;98.57;101638.81;5061979;28;19917;-65
2023/05/06 06:50:20;;;;;;;;;;;;;;;11.84;98.69;101636.00;5066687;28;20515;-64
2023/05/06 06:52:46;;;;;;;;;;;;;;;11.90;98.82;101632.72;5068667;28;19920;-65
2023/05/06 06:55:11;;;;;;;;;;;;;;;11.97;98.71;101639.91;5066233;28;19917;-65
2023/05/06 06:57:38;;;;;;;;;;;;;;;12.04;99.23;101638.25;5067521;28;19927;-65
2023/05/06 07:00:04;;;;;;;;;;;;;;;12.14;99.21;101639.94;5065211;28;19986;-65
2023/05/06 07:02:29;;;;;;;;;;;;;;;12.21;99.22;101633.84;5068111;28;19928;-64
2023/05/06 07:04:54;;;;;;;;;;;;;;;12.30;99.24;101634.69;5068303;28;20002;-65
2023/05/06 07:07:19;;;;;;;;;;;;;;;12.39;99.31;101631.88;5066812;28;19940;-64
2023/05/06 07:09:44;;;;;;;;;;;;;;;12.48;99.26;101632.75;5057265;28;19916;-65
2023/05/06 07:12:10;;;;;;;;;;;;;;;12.57;99.53;101634.41;5065145;28;19947;-65
2023/05/06 07:14:35;;;;;;;;;;;;;;;12.64;99.11;101640.75;5069035;28;20404;-64
2023/05/06 07:17:00;;;;;;;;;;;;;;;12.71;99.28;101647.09;5067136;28;19912;-64
2023/05/06 07:19:26;;;;;;;;;;;;;;;12.79;99.17;101640.13;5067265;28;19917;-65
2023/05/06 07:21:51;;;;;;;;;;;;;;;12.88;98.99;101647.13;5067357;28;19958;-65
2023/05/06 07:24:16;;;;;;;;;;;;;;;12.99;98.96;101655.59;5058069;28;20366;-65
2023/05/06 07:26:42;;;;;;;;;;;;;;;13.08;98.79;101653.78;5048171;28;19917;-65
2023/05/06 07:29:07;;;;;;;;;;;;;;;13.16;98.93;101661.78;5064633;28;19924;-67
2023/05/06 07:31:32;;;;;;;;;;;;;;;13.28;99.06;101660.47;5068265;28;19955;-65
2023/05/06 07:33:58;;;;;;;;;;;;;;;13.45;98.66;101657.78;5067574;28;19970;-64
2023/05/06 07:36:23;;;;;;;;;;;;;;;13.57;98.95;101654.59;5071412;28;20504;-65
2023/05/06 07:38:48;;;;;;;;;;;;;;;13.67;98.56;101659.75;5073519;28;20479;-65
2023/05/06 07:41:14;;;;;;;;;;;;;;;13.84;98.50;101657.84;5074602;28;20373;-64
2023/05/06 07:43:39;;;;;;;;;;;;;;;13.94;98.34;101661.19;5073803;28;19913;-64
2023/05/06 07:46:04;;;;;;;;;;;;;;;14.07;97.74;101656.09;5074588;28;20057;-65
2023/05/06 07:48:30;;;;;;;;;;;;;;;14.20;97.53;101650.22;5062620;28;20367;-64
2023/05/06 07:50:56;;;;;;;;;;;;;;;14.33;97.52;101654.97;5071978;28;20255;-65
2023/05/06 07:53:21;;;;;;;;;;;;;;;14.35;96.97;101640.44;5069763;28;19963;-64
2023/05/06 07:55:46;;;;;;;;;;;;;;;14.37;96.20;101654.47;5062183;28;20382;-64
2023/05/06 07:58:12;;;;;;;;;;;;;;;14.43;95.80;101648.44;5071217;28;19912;-65
2023/05/06 08:00:37;;;;;;;;;;;;;;;14.53;95.75;101659.75;5074732;28;19917;-65
2023/05/06 08:03:02;;;;;;;;;;;;;;;14.63;95.11;101661.34;5072038;28;20718;-65
2023/05/06 08:05:28;;;;;;;;;;;;;;;14.70;94.92;101662.31;5066347;28;19916;-65
2023/05/06 08:07:54;;;;;;;;;;;;;;;14.75;94.23;101659.97;5068589;28;19913;-65
2023/05/06 08:10:20;;;;;;;;;;;;;;;14.82;94.20;101666.25;5061958;28;20446;-64
2023/05/06 08:12:46;;;;;;;;;;;;;;;14.95;93.87;101663.78;5073208;28;19917;-65
2023/05/06 08:15:11;;;;;;;;;;;;;;;15.06;93.77;101667.91;5073471;28;19966;-65
2023/05/06 08:17:36;;;;;;;;;;;;;;;15.15;93.65;101669.50;5073342;28;20337;-65
2023/05/06 08:20:01;;;;;;;;;;;;;;;15.22;93.21;101673.09;5072978;28;20404;-65
2023/05/06 08:22:26;;;;;;;;;;;;;;;15.32;93.15;101668.31;5064030;28;19913;-65
2023/05/06 08:24:53;;;;;;;;;;;;;;;15.44;92.75;101674.91;5070692;28;21257;-65
2023/05/06 08:27:19;;;;;;;;;;;;;;;15.56;nan;101666.44;5072753;28;19916;-65
2023/05/06 08:29:44;;;;;;;;;;;;;;;15.68;92.58;101665.84;5074286;28;19916;-64
2023/05/06 08:32:09;;;;;;;;;;;;;;;15.79;91.36;101667.22;5073178;28;20011;-65
2023/05/06 08:34:35;;;;;;;;;;;;;;;15.82;91.35;101666.03;5065725;28;19968;-64
2023/05/06 08:37:00;;;;;;;;;;;;;;;15.89;90.71;101662.41;5068793;28;20400;-65
2023/05/06 08:39:26;;;;;;;;;;;;;;;15.98;90.47;101658.63;5068972;28;19959;-64
2023/05/06 08:41:52;;;;;;;;;;;;;;;16.07;90.15;101659.38;5071884;28;19920;-65
2023/05/06 08:44:18;;;;;;;;;;;;;;;16.18;89.95;101658.88;5072212;28;19912;-65
2023/05/06 08:46:44;;;;;;;;;;;;;;;16.27;89.45;101656.94;5069073;28;19965;-65
2023/05/06 08:49:09;;;;;;;;;;;;;;;16.32;88.81;101658.03;5067326;28;19957;-65
2023/05/06 08:51:36;;;;;;;;;;;;;;;16.39;88.23;101656.25;5066452;28;19948;-65
2023/05/06 08:54:02;;;;;;;;;;;;;;;16.48;87.80;101645.41;5066184;28;19916;-65
2023/05/06 08:56:28;;;;;;;;;;;;;;;16.55;87.21;101655.19;5065656;28;19916;-66
2023/05/06 08:58:55;;;;;;;;;;;;;;;16.62;87.44;101644.53;5059817;28;20301;-66
2023/05/06 09:01:20;;;;;;;;;;;;;;;16.70;85.94;101652.47;5063217;28;19927;-65
2023/05/06 09:03:45;;;;;;;;;;;;;;;16.83;85.39;101652.63;5058768;28;19916;-65
2023/05/06 09:06:11;;;;;;;;;;;;;;;16.96;85.17;101654.59;5066718;28;20012;-65
2023/05/06 09:08:36;;;;;;;;;;;;;;;17.00;83.13;101645.97;5068312;28;19920;-65
2023/05/06 09:11:01;;;;;;;;;;;;;;;17.13;83.09;101647.94;5059320;28;20062;-65
2023/05/06 09:13:26;;;;;;;;;;;;;;;17.31;82.46;101642.91;5067679;28;19916;-64
2023/05/06 09:15:52;;;;;;;;;;;;;;;17.50;81.87;101645.94;5063105;28;19918;-65
2023/05/06 09:18:17;;;;;;;;;;;;;;;17.64;81.95;101636.97;5066193;28;19943;-65
2023/05/06 09:20:44;;;;;;;;;;;;;;;17.74;80.23;101636.63;5070467;28;19943;-65
2023/05/06 09:23:13;;;;;;;;;;;;;;;17.85;80.26;101633.38;5069662;28;19919;-65
2023/05/06 09:25:38;;;;;;;;;;;;;;;18.07;79.95;101634.94;5070841;28;19935;-66
2023/05/06 09:28:04;;;;;;;;;;;;;;;18.27;80.05;101635.00;5063009;28;20374;-66
2023/05/06 09:30:29;;;;;;;;;;;;;;;18.35;79.05;101636.69;5068581;28;19952;-65
2023/05/06 09:32:54;;;;;;;;;;;;;;;18.46;76.81;101628.84;5065853;28;19952;-64
2023/05/06 09:35:20;;;;;;;;;;;;;;;18.59;74.26;101633.44;5069613;28;19919;-64
2023/05/06 09:37:45;;;;;;;;;;;;;;;18.71;73.85;101634.53;5067620;28;19923;-65
2023/05/06 09:40:10;;;;;;;;;;;;;;;18.84;73.73;101639.94;5069145;28;19924;-65
2023/05/06 09:42:36;;;;;;;;;;;;;;;18.87;73.09;101628.75;5063935;28;19938;-64
2023/05/06 09:45:01;;;;;;;;;;;;;;;18.98;72.42;101626.47;5067973;28;19916;-65
2023/05/06 09:47:26;;;;;;;;;;;;;;;19.10;71.88;101628.34;5064857;28;19917;-65
2023/05/06 09:49:55;;;;;;;;;;;;;;;19.15;69.46;101627.72;5066698;28;19912;-64
2023/05/06 09:52:22;;;;;;;;;;;;;;;19.04;66.79;101633.72;5069462;28;20453;-65
2023/05/06 09:54:47;;;;;;;;;;;;;;;19.04;67.35;101625.63;5067810;28;19917;-64
2023/05/06 09:57:15;;;;;;;;;;;;;;;19.24;68.56;101626.47;5068804;28;20444;-65
2023/05/06 09:59:41;;;;;;;;;;;;;;;19.45;69.82;101631.63;5065539;28;19963;-64
2023/05/06 10:02:07;;;;;;;;;;;;;;;19.57;67.61;101631.84;5067331;28;20337;-64
2023/05/06 10:04:34;;;;;;;;;;;;;;;19.52;64.72;101628.91;5068850;28;19913;-64
2023/05/06 10:07:00;;;;;;;;;;;;;;;19.57;64.52;101623.75;5068847;28;19912;-64
2023/05/06 10:09:25;;;;;;;;;;;;;;;19.63;65.75;101624.78;5061393;28;19921;-64
2023/05/06 10:11:52;;;;;;;;;;;;;;;19.80;66.11;101625.97;5058873;28;19924;-65
2023/05/06 10:14:17;;;;;;;;;;;;;;;19.98;65.02;101618.03;5064930;28;20011;-65
2023/05/06 10:16:43;;;;;;;;;;;;;;;20.07;63.07;101618.63;5058693;28;19995;-65
2023/05/06 10:19:08;;;;;;;;;;;;;;;20.14;61.51;101615.88;5056702;28;20404;-64
2023/05/06 10:21:36;;;;;;;;;;;;;;;20.15;60.52;101610.28;5052535;28;19954;-64
2023/05/06 10:24:07;;;;;;;;;;;;;;;20.07;60.98;101608.66;5057031;28;19917;-65
2023/05/06 10:26:35;;;;;;;;;;;;;;;20.06;60.30;101598.91;5058586;28;20569;-63
2023/05/06 10:29:01;;;;;;;;;;;;;;;20.16;60.45;101603.00;5059308;28;19975;-64
2023/05/06 10:31:28;;;;;;;;;;;;;;;20.36;62.31;101603.75;5050094;28;19920;-64
2023/05/06 10:33:55;;;;;;;;;;;;;;;20.64;62.85;101601.50;5054352;28;20385;-64
2023/05/06 10:36:21;;;;;;;;;;;;;;;20.71;58.78;101601.47;5066807;28;20385;-64
2023/05/06 10:38:59;;;;;;;;;;;;;;;20.47;58.53;101605.78;5056041;28;19916;-64
2023/05/06 10:41:26;;;;;;;;;;;;;;;20.47;60.35;101600.38;5057814;28;20343;-64
2023/05/06 10:43:55;;;;;;;;;;;;;;;20.65;59.71;101600.47;5067125;28;19917;-65
2023/05/06 10:46:21;;;;;;;;;;;;;;;20.80;59.82;101593.91;5057100;28;20019;-64
2023/05/06 10:49:05;;;;;;;;;;;;;;;20.91;57.47;101595.91;5067547;28;20025;-65
2023/05/06 10:51:39;;;;;;;;;;;;;;;20.89;58.23;101590.75;5063266;28;19916;-64
2023/05/06 10:54:17;;;;;;;;;;;;;;;20.99;57.83;101587.53;5049261;28;19955;-65
2023/05/06 10:56:47;;;;;;;;;;;;;;;21.11;57.55;101580.38;5056425;28;19928;-65
2023/05/06 10:59:13;;;;;;;;;;;;;;;21.21;57.59;101583.38;5059609;28;19917;-64
2023/05/06 11:01:39;;;;;;;;;;;;;;;21.26;57.00;101588.97;5058949;28;19928;-65
2023/05/06 11:04:05;;;;;;;;;;;;;;;21.23;55.04;101588.56;5056322;28;19917;-65
2023/05/06 11:06:32;;;;;;;;;;;;;;;21.05;55.14;101581.25;5054088;28;19928;-65
2023/05/06 11:08:59;;;;;;;;;;;;;;;20.99;55.24;101582.13;5066171;28;20007;-65
2023/05/06 11:11:43;;;;;;;;;;;;;;;20.89;54.65;101581.81;5053000;28;20003;-65
2023/05/06 11:14:12;;;;;;;;;;;;;;;20.73;54.85;101588.56;5059962;28;20015;-65
2023/05/06 11:16:50;;;;;;;;;;;;;;;20.44;54.61;101579.22;5056183;28;19920;-65
2023/05/06 11:19:22;;;;;;;;;;;;;;;20.33;54.56;101575.34;5063905;28;19970;-65
2023/05/06 11:21:48;;;;;;;;;;;;;;;20.38;54.67;101585.47;5056333;28;19924;-64
2023/05/06 11:24:14;;;;;;;;;;;;;;;20.45;55.02;101570.09;5055421;28;19917;-64
2023/05/06 11:26:40;;;;;;;;;;;;;;;20.57;55.35;101571.06;5054469;28;19916;-64
2023/05/06 11:29:06;;;;;;;;;;;;;;;20.75;55.75;101572.16;5057885;28;19925;-64
2023/05/06 11:31:37;;;;;;;;;;;;;;;20.92;55.61;101575.97;5058147;28;19921;-64
2023/05/06 11:34:05;;;;;;;;;;;;;;;21.00;54.75;101570.28;5058718;28;19923;-66
2023/05/06 11:36:31;;;;;;;;;;;;;;;20.81;54.36;101565.88;5054651;28;19963;-65
2023/05/06 11:38:57;;;;;;;;;;;;;;;20.82;54.70;101565.69;5063438;28;19955;-65
2023/05/06 11:41:22;;;;;;;;;;;;;;;20.88;53.99;101567.47;5062810;28;22355;-66
2023/05/06 11:43:49;;;;;;;;;;;;;;;21.02;53.67;101568.19;5064715;28;19924;-65
2023/05/06 11:46:15;;;;;;;;;;;;;;;21.12;53.32;101562.28;5061637;28;19920;-66
2023/05/06 11:48:42;;;;;;;;;;;;;;;21.12;53.13;101568.53;5057527;28;20311;-66
2023/05/06 11:51:07;;;;;;;;;;;;;;;21.09;53.41;101571.63;5054428;28;19921;-65
2023/05/06 11:53:32;;;;;;;;;;;;;;;21.08;54.05;101575.38;5056455;28;19966;-66
2023/05/06 11:55:57;;;;;;;;;;;;;;;21.19;54.28;101568.44;5058767;28;19970;-66
2023/05/06 11:58:27;;;;;;;;;;;;;;;21.22;52.19;101576.94;5056587;28;19924;-67
2023/05/06 12:00:53;;;;;;;;;;;;;;;21.22;53.11;101566.13;5053985;28;19921;-66
2023/05/06 12:03:19;;;;;;;;;;;;;;;21.33;52.20;101570.81;5054319;28;19923;-65
2023/05/06 12:05:46;;;;;;;;;;;;;;;21.22;51.33;101563.41;5054380;28;20378;-68
2023/05/06 12:08:12;;;;;;;;;;;;;;;21.23;51.97;101566.94;5061405;28;19923;-66
2023/05/06 12:10:38;;;;;;;;;;;;;;;21.34;51.90;101563.53;5055900;28;19936;-66
2023/05/06 12:13:04;;;;;;;;;;;;;;;21.52;52.21;101566.25;5062253;28;20539;-67
2023/05/06 12:15:30;;;;;;;;;;;;;;;21.74;52.58;101560.41;5056125;28;19962;-66
2023/05/06 12:17:56;;;;;;;;;;;;;;;21.84;51.84;101557.97;5058776;28;19921;-66
2023/05/06 12:20:21;;;;;;;;;;;;;;;21.61;50.64;101561.38;5064539;28;20007;-66
2023/05/06 12:23:03;;;;;;;;;;;;;;;21.51;50.85;101561.06;5066211;28;20530;-66
2023/05/06 12:25:28;;;;;;;;;;;;;;;21.51;51.25;101561.06;5063066;28;20408;-66
2023/05/06 12:27:53;;;;;;;;;;;;;;;21.62;50.51;101563.00;5067389;28;19924;-66
2023/05/06 12:30:28;;;;;;;;;;;;;;;21.74;50.46;101563.09;5057330;28;19913;-66